createdAt,value
2019-02-10T00:01:54.941Z,28.77
2019-02-10T00:06:00.001Z,22.77
2019-02-10T00:10:05.507Z,25.83
2019-02-10T00:14:11.581Z,35.13
2019-02-10T00:18:35.537Z,49.47
2019-02-10T00:22:42.102Z,37.47
2019-02-10T00:26:47.422Z,28.33
2019-02-10T00:30:52.725Z,32.80
2019-02-10T00:34:57.967Z,33.20
2019-02-10T00:39:04.782Z,37.03
2019-02-10T00:43:10.153Z,30.73
2019-02-10T00:47:15.219Z,36.07
2019-02-10T00:51:20.564Z,32.77
2019-02-10T00:55:25.803Z,24.73
2019-02-10T00:59:31.420Z,33.67
2019-02-10T01:03:36.634Z,37.83
2019-02-10T01:07:41.920Z,28.10
2019-02-10T01:11:47.184Z,30.33
2019-02-10T01:20:56.698Z,38.90
2019-02-10T01:25:01.890Z,31.03
2019-02-10T01:29:07.113Z,23.67
2019-02-10T01:33:12.290Z,23.10
2019-02-10T01:37:17.907Z,23.50
2019-02-10T01:41:23.117Z,31.00
2019-02-10T01:45:28.547Z,32.47
2019-02-10T01:49:33.834Z,33.90
2019-02-10T01:53:39.198Z,24.23
2019-02-10T01:57:44.540Z,33.87
2019-02-10T02:01:50.210Z,33.27
2019-02-10T02:05:55.487Z,20.17
2019-02-10T02:10:01.411Z,26.53
2019-02-10T02:14:06.615Z,32.40
2019-02-10T02:18:12.628Z,41.10
2019-02-10T02:22:18.584Z,30.97
2019-02-10T02:26:23.756Z,30.37
2019-02-10T02:30:29.088Z,31.17
2019-02-10T02:34:34.665Z,29.00
2019-02-10T02:38:39.970Z,26.30
2019-02-10T02:42:45.205Z,22.83
2019-02-10T02:46:50.568Z,31.63
2019-02-10T02:50:55.848Z,20.53
2019-02-10T02:55:01.021Z,25.07
2019-02-10T02:59:06.142Z,27.13
2019-02-10T03:03:11.574Z,24.60
2019-02-10T03:07:18.258Z,36.70
2019-02-10T03:11:23.723Z,29.83
2019-02-10T03:15:29.253Z,24.70
2019-02-10T03:19:34.481Z,26.70
2019-02-10T03:23:39.734Z,29.70
2019-02-10T03:27:45.874Z,22.03
2019-02-10T03:31:51.161Z,21.73
2019-02-10T03:35:56.939Z,20.80
2019-02-10T03:40:02.243Z,23.97
2019-02-10T03:44:07.422Z,22.77
2019-02-10T03:48:12.672Z,25.00
2019-02-10T03:52:17.934Z,21.33
2019-02-10T03:56:23.518Z,25.87
2019-02-10T04:00:28.797Z,19.23
2019-02-10T04:04:33.934Z,24.47
2019-02-10T04:08:40.239Z,19.30
2019-02-10T04:12:45.470Z,31.47
2019-02-10T04:16:50.767Z,23.77
2019-02-10T04:20:56.171Z,17.87
2019-02-10T04:25:01.427Z,23.67
2019-02-10T04:29:06.727Z,24.13
2019-02-10T04:33:11.895Z,28.37
2019-02-10T04:37:18.020Z,21.77
2019-02-10T04:41:23.415Z,16.77
2019-02-10T04:45:28.861Z,29.00
2019-02-10T04:49:33.910Z,20.73
2019-02-10T04:53:39.194Z,23.83
2019-02-10T04:57:44.929Z,19.40
2019-02-10T05:01:50.714Z,25.73
2019-02-10T05:05:56.577Z,25.43
2019-02-10T05:10:03.790Z,22.20
2019-02-10T05:14:10.888Z,21.00
2019-02-10T05:18:16.296Z,22.67
2019-02-10T05:22:22.329Z,23.57
2019-02-10T05:26:27.770Z,22.63
2019-02-10T05:30:33.967Z,21.17
2019-02-10T05:34:40.259Z,22.47
2019-02-10T05:38:45.753Z,23.97
2019-02-10T05:42:52.433Z,22.50
2019-02-10T05:46:59.031Z,25.83
2019-02-10T05:51:07.266Z,16.90
2019-02-10T05:55:13.028Z,16.20
2019-02-10T05:59:20.963Z,25.97
2019-02-10T06:03:26.774Z,22.17
2019-02-10T06:07:32.210Z,20.50
2019-02-10T06:11:38.397Z,26.93
2019-02-10T06:15:44.145Z,19.10
2019-02-10T06:19:55.020Z,28.20
2019-02-10T06:24:01.556Z,26.50
2019-02-10T06:28:06.899Z,18.90
2019-02-10T06:32:14.051Z,29.37
2019-02-10T06:36:20.243Z,25.23
2019-02-10T06:40:26.578Z,20.30
2019-02-10T06:44:33.726Z,25.40
2019-02-10T06:48:39.370Z,30.03
2019-02-10T06:52:47.374Z,21.03
2019-02-10T06:56:55.039Z,21.50
2019-02-10T07:01:27.732Z,23.90
2019-02-10T07:05:34.073Z,21.10
2019-02-10T07:09:39.395Z,23.90
2019-02-10T07:13:48.215Z,21.80
2019-02-10T07:18:29.501Z,20.30
2019-02-10T07:22:57.250Z,25.97
2019-02-10T07:27:10.904Z,18.40
2019-02-10T07:31:21.801Z,24.50
2019-02-10T07:35:58.033Z,22.57
2019-02-10T07:41:05.152Z,24.80
2019-02-10T07:45:51.509Z,24.63
2019-02-10T07:50:55.459Z,23.53
2019-02-10T07:55:38.041Z,27.60
2019-02-10T08:00:37.576Z,17.77
2019-02-10T08:05:21.259Z,24.33
2019-02-10T08:10:04.719Z,21.50
2019-02-10T08:15:02.421Z,21.30
2019-02-10T08:19:35.005Z,22.13
2019-02-10T08:23:53.042Z,21.03
2019-02-10T08:28:40.019Z,23.10
2019-02-10T08:33:27.915Z,22.13
2019-02-10T08:38:09.815Z,20.47
2019-02-10T08:42:38.044Z,19.07
2019-02-10T08:47:09.103Z,21.10
2019-02-10T08:51:39.958Z,20.20
2019-02-10T08:55:48.366Z,16.63
2019-02-10T08:59:54.846Z,23.23
2019-02-10T09:04:00.421Z,15.80
2019-02-10T09:08:05.575Z,14.97
2019-02-10T09:12:10.685Z,15.30
2019-02-10T09:16:16.259Z,14.40
2019-02-10T09:20:21.614Z,15.00
2019-02-10T09:24:27.103Z,17.20
2019-02-10T09:28:33.681Z,21.87
2019-02-10T09:32:41.127Z,14.40
2019-02-10T09:36:47.099Z,13.10
2019-02-10T09:40:52.214Z,13.80
2019-02-10T09:44:58.819Z,14.20
2019-02-10T09:49:05.044Z,15.93
2019-02-10T09:53:11.666Z,16.73
2019-02-10T09:57:18.131Z,15.73
2019-02-10T10:01:24.143Z,13.83
2019-02-10T10:05:29.858Z,17.77
2019-02-10T10:09:34.840Z,15.43
2019-02-10T10:13:39.931Z,17.97
2019-02-10T10:17:45.302Z,22.50
2019-02-10T10:21:50.193Z,20.97
2019-02-10T10:25:56.842Z,26.77
2019-02-10T10:30:01.823Z,25.03
2019-02-10T10:34:08.593Z,27.27
2019-02-10T10:38:14.675Z,22.60
2019-02-10T10:42:19.596Z,22.47
2019-02-10T10:46:25.026Z,22.87
2019-02-10T10:50:31.046Z,23.60
2019-02-10T10:54:42.691Z,20.10
2019-02-10T10:58:43.856Z,28.90
2019-02-10T11:02:48.897Z,20.10
2019-02-10T11:06:53.833Z,23.40
2019-02-10T11:10:59.041Z,17.80
2019-02-10T11:15:05.545Z,17.73
2019-02-10T11:19:10.762Z,22.27
2019-02-10T11:23:16.145Z,18.60
2019-02-10T11:27:21.259Z,24.17
2019-02-10T11:31:26.203Z,20.73
2019-02-10T11:35:32.336Z,17.93
2019-02-10T11:39:43.693Z,18.83
2019-02-10T11:43:46.545Z,17.17
2019-02-10T11:47:53.722Z,18.33
2019-02-10T11:52:01.047Z,16.13
2019-02-10T11:56:06.924Z,17.87
2019-02-10T12:00:13.305Z,19.03
2019-02-10T12:04:20.723Z,14.10
2019-02-10T12:08:34.164Z,21.23
2019-02-10T12:12:32.726Z,16.33
2019-02-10T12:16:39.403Z,15.60
2019-02-10T12:20:44.837Z,17.43
2019-02-10T12:24:49.877Z,17.83
2019-02-10T12:28:55.819Z,17.90
2019-02-10T12:33:00.730Z,17.30
2019-02-10T12:37:05.787Z,18.07
2019-02-10T12:41:12.670Z,22.80
2019-02-10T12:45:18.153Z,16.37
2019-02-10T12:49:24.492Z,18.47
2019-02-10T12:53:30.665Z,16.27
2019-02-10T12:57:37.437Z,14.37
2019-02-10T13:01:44.329Z,23.77
2019-02-10T13:05:52.453Z,23.23
2019-02-10T13:09:57.901Z,16.73
2019-02-10T13:14:05.042Z,17.70
2019-02-10T13:18:11.492Z,14.57
2019-02-10T13:22:21.339Z,13.37
2019-02-10T13:26:27.216Z,21.00
2019-02-10T13:30:34.266Z,13.80
2019-02-10T13:34:40.484Z,14.27
2019-02-10T13:38:46.597Z,14.23
2019-02-10T13:42:53.065Z,11.23
2019-02-10T13:46:58.380Z,15.63
2019-02-10T13:51:05.302Z,16.13
2019-02-10T13:55:11.825Z,16.77
2019-02-10T13:59:16.851Z,14.03
2019-02-10T14:03:23.036Z,15.20
2019-02-10T14:07:28.423Z,21.53
2019-02-10T14:11:33.296Z,17.30
2019-02-10T14:15:38.222Z,16.67
2019-02-10T14:19:44.309Z,19.70
2019-02-10T14:23:49.637Z,16.43
2019-02-10T14:27:56.121Z,16.10
2019-02-10T14:32:01.733Z,13.03
2019-02-10T14:36:09.142Z,12.90
2019-02-10T14:40:14.273Z,13.73
2019-02-10T14:44:20.554Z,13.93
2019-02-10T14:48:26.370Z,13.17
2019-02-10T14:52:32.949Z,17.30
2019-02-10T14:56:39.483Z,18.33
2019-02-10T15:00:45.560Z,14.13
2019-02-10T15:04:50.527Z,16.13
2019-02-10T15:08:55.585Z,20.47
2019-02-10T15:13:00.896Z,14.03
2019-02-10T15:17:06.466Z,12.87
2019-02-10T15:21:12.981Z,20.50
2019-02-10T15:25:18.391Z,14.33
2019-02-10T15:29:24.909Z,13.80
2019-02-10T15:33:30.363Z,9.67
2019-02-10T15:37:36.764Z,5.27
2019-02-10T15:41:42.246Z,11.33
2019-02-10T15:45:47.389Z,11.73
2019-02-10T15:49:53.519Z,8.27
2019-02-10T15:53:59.083Z,6.40
2019-02-10T15:58:06.222Z,6.90
2019-02-10T16:02:13.713Z,5.87
2019-02-10T16:06:20.064Z,7.20
2019-02-10T16:10:25.180Z,6.40
2019-02-10T16:14:31.932Z,6.07
2019-02-10T16:18:38.924Z,4.50
2019-02-10T16:22:45.189Z,3.73
2019-02-10T16:26:50.845Z,5.20
2019-02-10T16:30:56.194Z,5.00
2019-02-10T16:35:03.148Z,3.33
2019-02-10T16:39:15.134Z,4.03
2019-02-10T16:43:21.332Z,3.27
2019-02-10T16:47:26.614Z,5.27
2019-02-10T16:51:33.669Z,4.87
2019-02-10T16:55:39.483Z,4.13
2019-02-10T16:59:46.101Z,3.43
2019-02-10T17:03:51.438Z,6.70
2019-02-10T17:07:58.003Z,5.30
2019-02-10T17:12:05.866Z,5.27
2019-02-10T17:16:12.498Z,5.47
2019-02-10T17:20:19.051Z,5.37
2019-02-10T17:24:24.530Z,6.00
2019-02-10T17:28:30.001Z,4.33
2019-02-10T17:32:36.790Z,4.03
2019-02-10T17:36:42.105Z,3.30
2019-02-10T17:40:56.361Z,4.00
2019-02-10T17:45:02.972Z,4.63
2019-02-10T17:49:09.466Z,2.87
2019-02-10T17:53:14.936Z,1.63
2019-02-10T17:57:23.029Z,3.60
2019-02-10T18:01:30.630Z,4.10
2019-02-10T18:05:35.914Z,3.83
2019-02-10T18:09:41.964Z,3.27
2019-02-10T18:13:48.626Z,2.20
2019-02-10T18:18:24.889Z,3.63
2019-02-10T18:23:02.131Z,2.57
2019-02-10T18:27:25.582Z,2.23
2019-02-10T18:32:01.142Z,3.90
2019-02-10T18:36:39.361Z,3.90
2019-02-10T18:41:13.682Z,3.47
2019-02-10T18:45:27.113Z,3.33
2019-02-10T18:49:54.475Z,2.97
2019-02-10T18:54:20.993Z,2.83
2019-02-10T18:58:54.457Z,2.80
2019-02-10T19:03:03.918Z,2.37
2019-02-10T19:07:32.697Z,5.17
2019-02-10T19:11:56.661Z,3.80
2019-02-10T19:16:14.975Z,3.73
2019-02-10T19:20:33.627Z,2.83
2019-02-10T19:24:56.805Z,2.90
2019-02-10T19:29:25.579Z,5.27
2019-02-10T19:33:56.384Z,2.80
2019-02-10T19:38:29.592Z,4.70
2019-02-10T19:43:13.146Z,4.27
2019-02-10T19:47:43.251Z,3.87
2019-02-10T19:52:12.010Z,3.60
2019-02-10T19:56:36.715Z,2.83
2019-02-10T20:01:24.651Z,2.83
2019-02-10T20:05:48.303Z,2.40
2019-02-10T20:10:11.351Z,2.40
2019-02-10T20:14:38.486Z,2.17
2019-02-10T20:18:55.400Z,3.57
2019-02-10T20:23:23.963Z,2.27
2019-02-10T20:27:45.481Z,2.63
2019-02-10T20:32:27.937Z,3.97
2019-02-10T20:37:04.100Z,1.70
2019-02-10T20:41:25.686Z,2.50
2019-02-10T20:46:09.015Z,3.00
2019-02-10T20:50:40.111Z,3.73
2019-02-10T20:55:15.369Z,4.43
2019-02-10T20:59:43.479Z,3.93
2019-02-10T21:04:03.486Z,5.23
2019-02-10T21:08:26.758Z,4.20
2019-02-10T21:12:42.657Z,3.67
2019-02-10T21:17:06.429Z,3.20
2019-02-10T21:21:45.797Z,1.60
2019-02-10T21:26:06.921Z,5.70
2019-02-10T21:30:29.538Z,2.17
2019-02-10T21:34:43.272Z,1.83
2019-02-10T21:38:54.666Z,2.80
2019-02-10T21:43:12.917Z,5.10
2019-02-10T21:47:40.182Z,3.10
2019-02-10T21:51:45.134Z,2.40
2019-02-10T21:55:50.101Z,2.20
2019-02-10T21:59:55.255Z,4.30
2019-02-10T22:04:00.178Z,2.20
2019-02-10T22:08:05.207Z,2.27
2019-02-10T22:12:10.297Z,2.43
2019-02-10T22:16:15.297Z,1.37
2019-02-10T22:20:20.257Z,1.90
2019-02-10T22:24:25.364Z,1.67
2019-02-10T22:28:30.240Z,3.30
2019-02-10T22:32:35.673Z,2.50
2019-02-10T22:36:40.566Z,1.70
2019-02-10T22:40:45.871Z,4.00
2019-02-10T22:44:50.784Z,1.87
2019-02-10T22:48:55.738Z,3.60
2019-02-10T22:53:01.113Z,3.03
2019-02-10T22:57:06.057Z,2.67
2019-02-10T23:01:11.177Z,2.90
2019-02-10T23:05:16.093Z,3.93
2019-02-10T23:09:24.018Z,2.50
2019-02-10T23:13:28.921Z,2.90
2019-02-10T23:17:33.982Z,2.20
2019-02-10T23:21:38.892Z,3.03
2019-02-10T23:25:43.807Z,3.03
2019-02-10T23:29:49.805Z,1.80
2019-02-10T23:33:54.696Z,2.87
2019-02-10T23:37:59.686Z,0.70
2019-02-10T23:42:04.551Z,0.87
2019-02-10T23:46:09.605Z,1.00
2019-02-10T23:50:14.607Z,0.80
2019-02-10T23:54:19.514Z,0.67
2019-02-10T23:58:24.395Z,0.70
